createdAt,value
2023-02-16T00:01:46.971Z,37.80
2023-02-16T00:04:25.905Z,39.60
2023-02-16T00:06:54.235Z,39.25
2023-02-16T00:09:22.159Z,37.88
2023-02-16T00:12:08.668Z,38.20
2023-02-16T00:14:37.331Z,37.15
2023-02-16T00:17:05.141Z,39.00
2023-02-16T00:19:36.956Z,39.13
2023-02-16T00:22:05.525Z,40.65
2023-02-16T00:24:32.731Z,40.90
2023-02-16T00:27:00.411Z,40.05
2023-02-16T00:29:30.049Z,41.00
2023-02-16T00:31:58.822Z,39.33
2023-02-16T00:34:25.771Z,39.92
2023-02-16T00:36:54.248Z,42.30
2023-02-16T00:39:24.981Z,41.17
2023-02-16T00:41:56.202Z,41.58
2023-02-16T00:44:32.907Z,41.35
2023-02-16T00:47:23.374Z,41.65
2023-02-16T00:49:53.038Z,39.42
2023-02-16T00:52:42.730Z,40.05
2023-02-16T00:55:21.573Z,40.72
2023-02-16T00:57:53.225Z,40.15
2023-02-16T01:00:29.310Z,41.35
2023-02-16T01:02:59.200Z,40.45
2023-02-16T01:05:26.485Z,41.47
2023-02-16T01:08:11.873Z,40.55
2023-02-16T01:10:57.934Z,41.78
2023-02-16T01:13:27.848Z,41.83
2023-02-16T01:15:55.964Z,40.00
2023-02-16T01:18:23.164Z,42.40
2023-02-16T01:20:51.607Z,40.13
2023-02-16T01:23:18.470Z,41.88
2023-02-16T01:25:45.398Z,41.53
2023-02-16T01:28:20.109Z,41.40
2023-02-16T01:30:47.259Z,41.30
2023-02-16T01:33:14.209Z,42.35
2023-02-16T01:35:41.906Z,43.60
2023-02-16T01:38:19.946Z,41.20
2023-02-16T01:41:06.222Z,42.63
2023-02-16T01:43:47.080Z,40.60
2023-02-16T01:46:38.714Z,41.22
2023-02-16T01:49:05.672Z,42.27
2023-02-16T01:51:45.676Z,41.92
2023-02-16T01:54:22.123Z,42.08
2023-02-16T01:57:00.240Z,40.88
2023-02-16T01:59:53.501Z,41.28
2023-02-16T02:02:26.096Z,41.28
2023-02-16T02:05:35.960Z,40.90
2023-02-16T02:08:12.008Z,39.90
2023-02-16T02:11:10.184Z,40.85
2023-02-16T02:13:52.553Z,41.83
2023-02-16T02:16:23.685Z,41.38
2023-02-16T02:18:50.714Z,40.25
2023-02-16T02:22:02.357Z,40.58
2023-02-16T02:24:44.203Z,40.60
2023-02-16T02:27:20.056Z,41.35
2023-02-16T02:30:12.546Z,40.08
2023-02-16T02:32:51.816Z,39.28
2023-02-16T02:35:36.093Z,41.95
2023-02-16T02:38:16.719Z,40.83
2023-02-16T02:40:49.405Z,40.08
2023-02-16T02:43:56.879Z,39.58
2023-02-16T02:46:35.306Z,38.83
2023-02-16T02:49:03.868Z,40.38
2023-02-16T02:51:31.049Z,40.05
2023-02-16T02:54:30.380Z,39.67
2023-02-16T02:57:27.676Z,39.55
2023-02-16T03:00:32.034Z,40.03
2023-02-16T03:03:10.845Z,38.33
2023-02-16T03:05:41.508Z,39.20
2023-02-16T03:08:14.816Z,38.00
2023-02-16T03:11:28.033Z,39.10
2023-02-16T03:13:59.781Z,39.78
2023-02-16T03:16:44.252Z,40.35
2023-02-16T03:19:32.660Z,40.40
2023-02-16T03:22:19.009Z,39.70
2023-02-16T03:25:04.822Z,40.75
2023-02-16T03:27:53.981Z,40.92
2023-02-16T03:30:22.313Z,40.72
2023-02-16T03:32:49.565Z,40.85
2023-02-16T03:35:16.648Z,39.78
2023-02-16T03:37:45.028Z,41.00
2023-02-16T03:40:29.422Z,39.78
2023-02-16T03:42:58.437Z,40.90
2023-02-16T03:45:25.887Z,39.50
2023-02-16T03:47:53.381Z,40.47
2023-02-16T03:50:20.631Z,39.30
2023-02-16T03:52:47.641Z,39.85
2023-02-16T03:55:15.369Z,39.08
2023-02-16T03:57:42.204Z,41.00
2023-02-16T04:00:09.510Z,41.15
2023-02-16T04:02:43.641Z,42.35
2023-02-16T04:05:10.533Z,40.92
2023-02-16T04:07:37.401Z,39.83
2023-02-16T04:10:04.698Z,40.40
2023-02-16T04:12:37.275Z,40.70
2023-02-16T04:15:06.447Z,39.97
2023-02-16T04:17:33.347Z,40.90
2023-02-16T04:20:00.237Z,41.53
2023-02-16T04:22:27.230Z,40.83
2023-02-16T04:24:54.066Z,41.50
2023-02-16T04:27:20.952Z,39.83
2023-02-16T04:29:47.788Z,39.25
2023-02-16T04:32:14.790Z,40.85
2023-02-16T04:34:41.719Z,40.72
2023-02-16T04:37:08.673Z,40.67
2023-02-16T04:39:35.577Z,41.13
2023-02-16T04:42:02.588Z,42.35
2023-02-16T04:44:29.494Z,43.72
2023-02-16T04:46:56.437Z,40.65
2023-02-16T04:49:23.451Z,41.25
2023-02-16T04:51:50.318Z,41.70
2023-02-16T04:54:17.873Z,42.38
2023-02-16T04:56:46.513Z,41.72
2023-02-16T04:59:13.878Z,43.70
2023-02-16T05:01:41.776Z,42.13
2023-02-16T05:04:11.889Z,42.08
2023-02-16T05:06:39.270Z,42.00
2023-02-16T05:09:07.738Z,43.67
2023-02-16T05:11:53.645Z,42.80
2023-02-16T05:14:53.660Z,40.53
2023-02-16T05:17:23.168Z,44.40
2023-02-16T05:19:55.860Z,41.45
2023-02-16T05:22:22.721Z,42.55
2023-02-16T05:24:50.131Z,44.08
2023-02-16T05:27:25.531Z,43.55
2023-02-16T05:29:52.693Z,42.30
2023-02-16T05:32:20.234Z,42.85
2023-02-16T05:34:47.210Z,42.20
2023-02-16T05:37:15.423Z,42.17
2023-02-16T05:39:42.525Z,43.38
2023-02-16T05:42:09.878Z,41.50
2023-02-16T05:44:37.725Z,42.35
2023-02-16T05:47:04.816Z,42.55
2023-02-16T05:49:31.740Z,43.47
2023-02-16T05:51:58.608Z,41.90
2023-02-16T05:54:25.625Z,43.92
2023-02-16T05:56:53.207Z,43.90
2023-02-16T05:59:20.447Z,45.35
2023-02-16T06:01:50.997Z,44.40
2023-02-16T06:04:18.931Z,43.80
2023-02-16T06:06:45.762Z,44.88
2023-02-16T06:09:12.681Z,43.88
2023-02-16T06:11:40.170Z,42.80
2023-02-16T06:14:10.958Z,43.78
2023-02-16T06:16:40.050Z,43.80
2023-02-16T06:19:07.113Z,43.85
2023-02-16T06:21:34.716Z,44.38
2023-02-16T06:24:01.826Z,43.15
2023-02-16T06:26:28.854Z,44.00
2023-02-16T06:28:55.870Z,45.10
2023-02-16T06:31:23.671Z,45.15
2023-02-16T06:33:51.057Z,45.28
2023-02-16T06:36:18.496Z,43.70
2023-02-16T06:38:45.705Z,43.28
2023-02-16T06:41:12.821Z,46.00
2023-02-16T06:43:39.689Z,45.28
2023-02-16T06:46:06.767Z,44.65
2023-02-16T06:48:33.736Z,43.15
2023-02-16T06:51:00.639Z,44.25
2023-02-16T06:53:27.589Z,45.63
2023-02-16T06:55:54.437Z,44.47
2023-02-16T06:58:21.346Z,44.38
2023-02-16T07:00:48.381Z,46.63
2023-02-16T07:03:15.420Z,45.30
2023-02-16T07:05:44.144Z,45.55
2023-02-16T07:08:11.073Z,44.88
2023-02-16T07:10:49.391Z,46.42
2023-02-16T07:13:17.076Z,45.17
2023-02-16T07:15:44.089Z,44.60
2023-02-16T07:18:11.027Z,46.22
2023-02-16T07:20:38.029Z,45.63
2023-02-16T07:23:04.949Z,45.75
2023-02-16T07:25:31.848Z,43.05
2023-02-16T07:27:58.800Z,45.05
2023-02-16T07:30:25.702Z,44.03
2023-02-16T07:32:52.513Z,46.03
2023-02-16T07:35:19.391Z,43.88
2023-02-16T07:37:46.314Z,46.45
2023-02-16T07:40:13.489Z,43.00
2023-02-16T07:42:40.336Z,44.78
2023-02-16T07:45:07.504Z,44.35
2023-02-16T07:47:34.374Z,44.28
2023-02-16T07:50:01.399Z,44.45
2023-02-16T07:52:31.164Z,44.85
2023-02-16T07:54:59.060Z,44.78
2023-02-16T07:57:27.847Z,46.22
2023-02-16T07:59:55.266Z,45.67
2023-02-16T08:02:23.295Z,45.25
2023-02-16T08:04:52.783Z,44.75
2023-02-16T08:07:20.421Z,44.50
2023-02-16T08:09:47.479Z,44.40
2023-02-16T08:12:15.541Z,46.70
2023-02-16T08:14:43.063Z,45.65
2023-02-16T08:17:10.680Z,44.85
2023-02-16T08:19:37.605Z,46.35
2023-02-16T08:22:05.568Z,44.15
2023-02-16T08:24:34.075Z,47.33
2023-02-16T08:27:03.885Z,45.28
2023-02-16T08:29:31.915Z,44.55
2023-02-16T08:31:59.668Z,45.30
2023-02-16T08:34:27.442Z,43.83
2023-02-16T08:36:56.693Z,45.90
2023-02-16T08:39:28.589Z,43.95
2023-02-16T08:41:55.872Z,48.20
2023-02-16T08:44:25.070Z,45.67
2023-02-16T08:46:55.035Z,45.05
2023-02-16T08:49:23.842Z,44.88
2023-02-16T08:51:56.643Z,47.47
2023-02-16T08:54:28.133Z,47.40
2023-02-16T08:56:55.900Z,49.85
2023-02-16T08:59:25.544Z,45.10
2023-02-16T09:01:54.153Z,45.20
2023-02-16T09:04:21.106Z,44.80
2023-02-16T09:06:48.882Z,44.15
2023-02-16T09:09:16.150Z,45.45
2023-02-16T09:11:43.205Z,44.08
2023-02-16T09:14:10.503Z,43.83
2023-02-16T09:16:39.645Z,43.25
2023-02-16T09:19:07.170Z,43.45
2023-02-16T09:21:34.214Z,46.70
2023-02-16T09:24:04.184Z,46.25
2023-02-16T09:26:33.451Z,45.53
2023-02-16T09:29:02.058Z,47.25
2023-02-16T09:31:32.543Z,47.10
2023-02-16T09:34:05.809Z,47.45
2023-02-16T09:36:32.733Z,48.15
2023-02-16T09:39:00.026Z,49.22
2023-02-16T09:41:59.712Z,47.78
2023-02-16T09:44:52.001Z,47.10
2023-02-16T09:47:29.417Z,48.33
2023-02-16T09:49:58.565Z,48.42
2023-02-16T09:52:40.256Z,50.05
2023-02-16T09:55:14.515Z,48.72
2023-02-16T09:58:01.406Z,50.60
2023-02-16T10:00:34.290Z,50.35
2023-02-16T10:03:25.934Z,51.63
2023-02-16T10:06:05.674Z,49.97
2023-02-16T10:08:41.029Z,49.80
2023-02-16T10:11:47.024Z,50.28
2023-02-16T10:14:31.591Z,47.67
2023-02-16T10:17:28.483Z,50.28
2023-02-16T10:20:21.425Z,49.42
2023-02-16T10:22:53.275Z,48.78
2023-02-16T10:25:44.509Z,50.58
2023-02-16T10:28:28.944Z,51.97
2023-02-16T10:31:03.551Z,50.20
2023-02-16T10:33:57.308Z,49.38
2023-02-16T10:36:36.411Z,49.55
2023-02-16T10:39:12.126Z,49.80
2023-02-16T10:41:44.478Z,51.90
2023-02-16T10:44:29.340Z,52.38
2023-02-16T10:47:03.245Z,51.28
2023-02-16T10:49:32.405Z,49.38
2023-02-16T10:52:01.922Z,49.92
2023-02-16T10:54:31.675Z,47.25
2023-02-16T10:57:02.831Z,51.83
2023-02-16T10:59:44.418Z,49.75
2023-02-16T11:02:19.363Z,48.17
2023-02-16T11:04:49.031Z,49.55
2023-02-16T11:07:18.915Z,49.25
2023-02-16T11:09:48.268Z,49.55
2023-02-16T11:12:32.379Z,49.63
2023-02-16T11:15:23.991Z,52.25
2023-02-16T11:18:02.012Z,51.95
2023-02-16T11:20:34.711Z,50.80
2023-02-16T11:23:20.260Z,52.58
2023-02-16T11:26:11.803Z,51.17
2023-02-16T11:28:42.909Z,52.65
2023-02-16T11:31:09.928Z,49.70
2023-02-16T11:33:37.956Z,51.72
2023-02-16T11:36:20.066Z,50.03
2023-02-16T11:39:03.460Z,48.67
2023-02-16T11:41:30.905Z,49.88
2023-02-16T11:43:58.270Z,49.63
2023-02-16T11:46:25.534Z,50.80
2023-02-16T11:48:52.847Z,47.80
2023-02-16T11:51:32.829Z,47.78
2023-02-16T11:54:02.806Z,48.00
2023-02-16T11:56:32.972Z,50.90
2023-02-16T11:59:12.713Z,49.00
2023-02-16T12:01:51.587Z,50.50
2023-02-16T12:04:32.490Z,50.28
2023-02-16T12:07:22.991Z,48.63
2023-02-16T12:10:08.717Z,48.85
2023-02-16T12:13:09.208Z,47.58
2023-02-16T12:15:42.685Z,48.75
2023-02-16T12:18:24.826Z,49.00
2023-02-16T12:21:20.572Z,46.65
2023-02-16T12:24:14.819Z,47.10
2023-02-16T12:26:45.008Z,47.70
2023-02-16T12:29:45.858Z,47.85
2023-02-16T12:32:38.484Z,49.13
2023-02-16T12:37:54.839Z,45.38
2023-02-16T12:40:51.900Z,43.58
2023-02-16T12:43:37.729Z,43.50
2023-02-16T12:46:30.841Z,41.60
2023-02-16T12:49:04.356Z,43.55
2023-02-16T12:51:38.212Z,44.13
2023-02-16T12:54:11.680Z,42.95
2023-02-16T12:56:43.184Z,40.58
2023-02-16T12:59:16.616Z,40.33
2023-02-16T13:01:45.045Z,40.45
2023-02-16T13:04:29.927Z,41.72
2023-02-16T13:07:08.366Z,40.05
2023-02-16T13:09:47.135Z,37.47
2023-02-16T13:12:23.256Z,39.58
2023-02-16T13:15:16.897Z,35.83
2023-02-16T13:17:49.653Z,36.25
2023-02-16T13:20:20.733Z,36.05
2023-02-16T13:22:47.591Z,37.13
2023-02-16T13:25:26.871Z,35.15
2023-02-16T13:28:25.051Z,37.22
2023-02-16T13:31:07.285Z,37.22
2023-02-16T13:33:49.259Z,35.13
2023-02-16T13:36:40.158Z,33.45
2023-02-16T13:39:28.091Z,32.67
2023-02-16T13:42:15.162Z,32.50
2023-02-16T13:44:57.097Z,32.53
2023-02-16T13:47:30.700Z,32.97
2023-02-16T13:49:59.495Z,30.25
2023-02-16T13:52:39.991Z,27.67
2023-02-16T13:55:21.889Z,29.10
2023-02-16T13:57:52.684Z,28.23
2023-02-16T14:00:47.824Z,29.17
2023-02-16T14:03:19.326Z,26.58
2023-02-16T14:05:54.479Z,28.67
2023-02-16T14:08:31.610Z,28.25
2023-02-16T14:11:02.955Z,27.80
2023-02-16T14:13:38.904Z,27.63
2023-02-16T14:16:18.168Z,29.02
2023-02-16T14:18:59.260Z,27.80
2023-02-16T14:21:38.712Z,27.98
2023-02-16T14:24:35.682Z,28.15
2023-02-16T14:27:04.048Z,27.92
2023-02-16T14:29:53.043Z,28.42
2023-02-16T14:32:19.974Z,26.95
2023-02-16T14:34:55.240Z,27.27
2023-02-16T14:37:41.328Z,28.23
2023-02-16T14:40:20.968Z,27.48
2023-02-16T14:42:56.127Z,27.02
2023-02-16T14:46:10.801Z,27.17
2023-02-16T14:48:43.571Z,26.50
2023-02-16T14:51:29.262Z,26.85
2023-02-16T14:54:14.604Z,25.95
2023-02-16T14:56:49.275Z,27.33
2023-02-16T14:59:43.995Z,25.52
2023-02-16T15:02:38.178Z,24.73
2023-02-16T15:05:21.217Z,24.35
2023-02-16T15:07:51.105Z,23.48
2023-02-16T15:10:26.792Z,22.67
2023-02-16T15:12:55.656Z,23.35
2023-02-16T15:15:38.951Z,24.48
2023-02-16T15:18:09.190Z,22.58
2023-02-16T15:20:38.885Z,24.52
2023-02-16T15:23:21.526Z,22.10
2023-02-16T15:25:58.874Z,19.63
2023-02-16T15:28:31.634Z,20.00
2023-02-16T15:31:03.524Z,19.00
2023-02-16T15:33:37.710Z,18.65
2023-02-16T15:36:08.021Z,19.35
2023-02-16T15:38:54.310Z,21.20
2023-02-16T15:41:37.638Z,19.80
2023-02-16T15:44:07.257Z,21.08
2023-02-16T15:46:37.960Z,21.13
2023-02-16T15:49:13.799Z,21.13
2023-02-16T15:51:43.113Z,22.48
2023-02-16T15:54:35.634Z,21.95
2023-02-16T15:57:16.581Z,22.42
2023-02-16T15:59:43.399Z,22.60
2023-02-16T16:02:10.321Z,24.27
2023-02-16T16:04:41.829Z,23.90
2023-02-16T16:07:13.222Z,24.67
2023-02-16T16:09:42.163Z,24.63
2023-02-16T16:12:13.613Z,25.55
2023-02-16T16:15:04.297Z,27.02
2023-02-16T16:17:37.742Z,24.85
2023-02-16T16:20:29.463Z,26.85
2023-02-16T16:23:14.842Z,28.07
2023-02-16T16:25:47.190Z,27.92
2023-02-16T16:31:17.471Z,26.75
2023-02-16T16:33:53.646Z,28.33
2023-02-16T16:36:21.109Z,28.88
2023-02-16T16:38:48.278Z,28.23
2023-02-16T16:41:27.695Z,28.77
2023-02-16T16:43:56.991Z,28.30
2023-02-16T16:46:25.126Z,29.35
2023-02-16T16:48:56.657Z,28.77
2023-02-16T16:51:31.229Z,29.50
2023-02-16T16:54:00.850Z,31.00
2023-02-16T16:56:29.608Z,31.67
2023-02-16T16:58:59.005Z,31.67
2023-02-16T17:01:28.080Z,32.58
2023-02-16T17:03:55.048Z,32.72
2023-02-16T17:06:22.911Z,32.53
2023-02-16T17:08:49.941Z,33.63
2023-02-16T17:11:32.902Z,34.17
2023-02-16T17:14:15.507Z,35.00
2023-02-16T17:16:48.254Z,36.28
2023-02-16T17:19:17.480Z,36.25
2023-02-16T17:21:46.371Z,35.42
2023-02-16T17:24:15.803Z,33.97
2023-02-16T17:26:42.702Z,33.92
2023-02-16T17:29:10.341Z,37.65
2023-02-16T17:31:37.304Z,36.60
2023-02-16T17:34:04.482Z,35.20
2023-02-16T17:36:31.344Z,37.63
2023-02-16T17:38:58.286Z,37.47
2023-02-16T17:41:29.699Z,37.97
2023-02-16T17:43:56.631Z,35.37
2023-02-16T17:46:24.783Z,39.55
2023-02-16T17:48:55.000Z,39.42
2023-02-16T17:51:24.400Z,38.22
2023-02-16T17:53:51.825Z,34.47
2023-02-16T17:56:21.828Z,38.15
2023-02-16T17:58:48.834Z,38.47
2023-02-16T18:01:17.210Z,40.78
2023-02-16T18:03:44.429Z,38.58
2023-02-16T18:06:16.808Z,39.22
2023-02-16T18:08:44.285Z,38.75
2023-02-16T18:11:11.361Z,40.05
2023-02-16T18:13:38.777Z,40.28
2023-02-16T18:16:07.433Z,40.38
2023-02-16T18:18:36.822Z,41.35
2023-02-16T18:21:03.938Z,38.55
2023-02-16T18:23:31.293Z,39.50
2023-02-16T18:25:58.199Z,36.97
2023-02-16T18:28:31.166Z,40.72
2023-02-16T18:30:58.860Z,37.60
2023-02-16T18:33:26.458Z,40.30
2023-02-16T18:35:55.696Z,39.47
2023-02-16T18:38:23.204Z,40.30
2023-02-16T18:40:52.086Z,40.15
2023-02-16T18:43:19.093Z,38.47
2023-02-16T18:45:45.981Z,39.22
2023-02-16T18:48:13.334Z,38.55
2023-02-16T18:50:40.447Z,38.22
2023-02-16T18:53:07.333Z,36.97
2023-02-16T18:55:35.025Z,38.40
2023-02-16T18:58:03.630Z,37.53
2023-02-16T19:00:30.898Z,36.53
2023-02-16T19:02:57.883Z,39.58
2023-02-16T19:05:24.958Z,37.38
2023-02-16T19:07:51.850Z,37.60
2023-02-16T19:10:19.312Z,36.33
2023-02-16T19:12:46.353Z,35.45
2023-02-16T19:15:13.610Z,37.53
2023-02-16T19:17:40.484Z,38.30
2023-02-16T19:20:09.803Z,36.63
2023-02-16T19:22:37.318Z,41.65
2023-02-16T19:25:07.945Z,39.15
2023-02-16T19:27:35.022Z,35.97
2023-02-16T19:30:01.936Z,39.10
2023-02-16T19:32:29.117Z,39.15
2023-02-16T19:34:57.065Z,42.10
2023-02-16T19:37:23.949Z,38.08
2023-02-16T19:39:51.160Z,38.67
2023-02-16T19:42:18.084Z,38.20
2023-02-16T19:44:44.883Z,37.53
2023-02-16T19:47:11.696Z,39.08
2023-02-16T19:49:38.599Z,36.78
2023-02-16T19:52:05.941Z,39.58
2023-02-16T19:54:35.820Z,37.83
2023-02-16T19:57:03.810Z,36.70
2023-02-16T19:59:32.201Z,37.20
2023-02-16T20:01:59.518Z,36.60
2023-02-16T20:04:26.402Z,35.50
2023-02-16T20:06:54.610Z,36.42
2023-02-16T20:09:22.821Z,36.17
2023-02-16T20:11:50.692Z,35.63
2023-02-16T20:14:17.794Z,34.90
2023-02-16T20:16:44.711Z,36.28
2023-02-16T20:19:11.612Z,33.00
2023-02-16T20:21:38.982Z,34.58
2023-02-16T20:24:06.435Z,33.50
2023-02-16T20:26:36.904Z,34.88
2023-02-16T20:29:06.047Z,32.60
2023-02-16T20:31:36.688Z,33.88
2023-02-16T20:34:04.236Z,32.17
2023-02-16T20:36:32.307Z,31.80
2023-02-16T20:38:59.493Z,33.40
2023-02-16T20:41:26.461Z,31.98
2023-02-16T20:43:53.912Z,33.00
2023-02-16T20:46:23.464Z,31.60
2023-02-16T20:48:50.925Z,30.35
2023-02-16T20:51:18.874Z,31.63
2023-02-16T20:53:46.526Z,30.95
2023-02-16T20:56:19.517Z,30.67
2023-02-16T20:58:48.051Z,31.27
2023-02-16T21:01:28.280Z,29.90
2023-02-16T21:03:57.839Z,24.30
2023-02-16T21:06:25.808Z,22.55
2023-02-16T21:08:52.674Z,25.83
2023-02-16T21:11:20.116Z,21.85
2023-02-16T21:13:47.513Z,19.83
2023-02-16T21:16:14.900Z,18.17
2023-02-16T21:18:42.705Z,18.95
2023-02-16T21:21:15.280Z,20.55
2023-02-16T21:23:44.408Z,17.80
2023-02-16T21:26:11.725Z,19.50
2023-02-16T21:28:38.950Z,19.83
2023-02-16T21:31:09.934Z,20.20
2023-02-16T21:33:37.609Z,18.25
2023-02-16T21:36:10.892Z,18.45
2023-02-16T21:38:38.456Z,17.48
2023-02-16T21:41:25.500Z,18.20
2023-02-16T21:43:53.867Z,18.08
2023-02-16T21:46:21.224Z,15.20
2023-02-16T21:48:48.619Z,16.58
2023-02-16T21:51:20.748Z,16.58
2023-02-16T21:53:48.148Z,16.88
2023-02-16T21:56:36.912Z,18.08
2023-02-16T21:59:06.131Z,17.25
2023-02-16T22:01:37.085Z,19.23
2023-02-16T22:04:04.777Z,17.98
2023-02-16T22:06:35.508Z,17.90
2023-02-16T22:09:06.281Z,19.13
2023-02-16T22:11:33.236Z,16.45
2023-02-16T22:14:01.799Z,13.05
2023-02-16T22:16:30.356Z,13.43
2023-02-16T22:18:58.623Z,13.07
2023-02-16T22:21:26.950Z,13.82
2023-02-16T22:23:54.242Z,13.55
2023-02-16T22:26:24.453Z,12.77
2023-02-16T22:28:51.672Z,12.32
2023-02-16T22:31:20.347Z,13.10
2023-02-16T22:33:47.627Z,13.50
2023-02-16T22:36:15.712Z,12.23
2023-02-16T22:38:44.136Z,11.45
2023-02-16T22:41:12.095Z,12.18
2023-02-16T22:43:39.633Z,11.65
2023-02-16T22:46:14.253Z,11.38
2023-02-16T22:48:42.077Z,10.50
2023-02-16T22:51:11.907Z,11.02
2023-02-16T22:53:38.998Z,11.57
2023-02-16T22:56:07.851Z,11.45
2023-02-16T22:58:35.221Z,9.32
2023-02-16T23:01:02.109Z,11.85
2023-02-16T23:03:30.084Z,12.07
2023-02-16T23:05:56.916Z,12.07
2023-02-16T23:08:23.901Z,12.57
2023-02-16T23:10:59.881Z,13.02
2023-02-16T23:13:32.945Z,13.02
2023-02-16T23:16:17.898Z,12.95
2023-02-16T23:18:45.426Z,12.40
2023-02-16T23:21:16.986Z,13.10
2023-02-16T23:23:44.854Z,11.57
2023-02-16T23:26:12.079Z,13.65
2023-02-16T23:28:40.631Z,13.55
2023-02-16T23:31:07.856Z,13.38
2023-02-16T23:33:34.799Z,13.43
2023-02-16T23:36:01.807Z,14.25
2023-02-16T23:38:28.702Z,13.55
2023-02-16T23:41:01.148Z,14.52
2023-02-16T23:43:27.984Z,14.52
2023-02-16T23:45:55.663Z,12.00
2023-02-16T23:48:23.664Z,15.48
2023-02-16T23:50:51.770Z,15.90
2023-02-16T23:53:19.799Z,15.65
2023-02-16T23:56:00.509Z,16.92
2023-02-16T23:58:29.060Z,13.60
